Time;durP1;ratioP1;P1;durP2;ratioP2;P2;SDS_P1;SDS_P2;PMS_P1;PMS_P2;Temp;Humidity;BMP_temperature;BMP_pressure;BME280_temperature;BME280_humidity;BME280_pressure;Samples;Min_cycle;Max_cycle;Signal;HPM_P1;HPM_P2
2022/01/17 00:00:30;;;;;;;14.10;2.20;;;6.40;99.90;;;;;;5082018;28;20211;-70
2022/01/17 00:03:00;;;;;;;13.95;4.07;;;6.50;99.90;;;;;;5082698;28;20200;-71
2022/01/17 00:05:28;;;;;;;15.23;2.97;;;6.50;99.90;;;;;;5082813;28;20232;-72
2022/01/17 00:07:58;;;;;;;11.98;2.50;;;6.50;99.90;;;;;;5081958;28;20220;-72
2022/01/17 00:10:25;;;;;;;10.13;2.53;;;6.50;99.90;;;;;;5082074;28;20207;-71
2022/01/17 00:12:57;;;;;;;11.20;2.15;;;6.50;99.90;;;;;;5081829;28;20228;-72
2022/01/17 00:15:30;;;;;;;15.25;3.20;;;6.50;99.90;;;;;;5082267;28;20230;-70
2022/01/17 00:18:23;;;;;;;16.58;3.78;;;6.50;99.90;;;;;;5082878;28;20205;-70
2022/01/17 00:20:51;;;;;;;4.97;2.35;;;6.50;99.90;;;;;;5090620;28;20266;-71
2022/01/17 00:23:20;;;;;;;17.25;2.45;;;6.50;99.90;;;;;;5103406;28;20220;-71
2022/01/17 00:25:48;;;;;;;10.30;2.95;;;6.50;99.90;;;;;;5085682;28;20203;-73
2022/01/17 00:28:16;;;;;;;15.05;2.85;;;6.60;99.90;;;;;;5081533;28;20199;-68
2022/01/17 00:30:43;;;;;;;7.82;2.28;;;6.60;99.90;;;;;;5080676;28;20212;-70
2022/01/17 00:33:12;;;;;;;11.45;2.35;;;6.60;99.90;;;;;;5080638;28;20953;-72
2022/01/17 00:35:39;;;;;;;15.45;3.22;;;6.60;99.90;;;;;;5081538;28;20220;-71
2022/01/17 00:38:11;;;;;;;12.25;2.53;;;6.60;99.90;;;;;;5080660;28;20216;-72
2022/01/17 00:40:41;;;;;;;10.15;2.80;;;6.60;99.90;;;;;;5081128;28;20204;-72
2022/01/17 00:43:09;;;;;;;12.40;3.67;;;6.60;99.90;;;;;;5080752;28;20338;-69
2022/01/17 00:45:39;;;;;;;10.70;2.85;;;6.60;99.90;;;;;;5080434;28;20203;-70
2022/01/17 00:48:07;;;;;;;21.65;3.58;;;6.70;99.90;;;;;;5080714;28;20738;-71
2022/01/17 00:50:37;;;;;;;25.17;3.17;;;6.70;99.90;;;;;;5080333;28;20205;-70
2022/01/17 00:53:05;;;;;;;14.38;2.75;;;6.80;99.90;;;;;;5080564;28;20861;-70
2022/01/17 00:55:35;;;;;;;11.18;2.60;;;6.70;99.90;;;;;;5080369;28;20585;-73
2022/01/17 00:58:05;;;;;;;7.90;2.35;;;6.70;99.90;;;;;;5080447;28;20232;-72
2022/01/17 01:00:34;;;;;;;11.05;2.90;;;6.70;99.90;;;;;;5085871;28;20207;-72
2022/01/17 01:03:02;;;;;;;9.00;2.17;;;6.80;99.90;;;;;;5086691;28;20391;-72
2022/01/17 01:05:31;;;;;;;11.02;2.50;;;6.80;99.90;;;;;;5081109;28;20203;-69
2022/01/17 01:07:58;;;;;;;21.33;3.92;;;6.80;99.90;;;;;;5081027;28;20220;-74
2022/01/17 01:10:27;;;;;;;11.82;2.42;;;6.80;99.90;;;;;;5081199;28;20206;-71
2022/01/17 01:12:55;;;;;;;8.80;2.72;;;6.80;99.90;;;;;;5081225;28;20200;-73
2022/01/17 01:15:35;;;;;;;20.00;2.63;;;6.80;99.90;;;;;;5080246;28;20263;-72
2022/01/17 01:18:13;;;;;;;10.82;2.55;;;6.80;99.90;;;;;;5082013;28;20238;-72
2022/01/17 01:21:04;;;;;;;9.85;3.05;;;6.80;99.90;;;;;;5084289;28;20177;-72
2022/01/17 01:29:08;;;;;;;9.77;2.67;;;6.80;99.90;;;;;;5016478;28;20210;-71
2022/01/17 01:31:44;;;;;;;10.25;2.45;;;6.90;99.90;;;;;;5016907;28;20199;-72
2022/01/17 01:34:13;;;;;;;13.55;2.80;;;6.90;99.90;;;;;;5069256;28;20283;-71
2022/01/17 01:36:42;;;;;;;9.40;2.60;;;6.90;99.90;;;;;;5078989;28;20311;-71
2022/01/17 01:39:10;;;;;;;13.25;3.30;;;6.90;99.90;;;;;;5079958;28;20728;-71
2022/01/17 01:41:42;;;;;;;17.23;3.40;;;6.90;99.90;;;;;;5079897;28;20211;-72
2022/01/17 01:44:15;;;;;;;13.27;4.22;;;7.00;99.90;;;;;;5079864;28;20196;-71
2022/01/17 01:46:45;;;;;;;7.07;2.47;;;7.00;99.90;;;;;;5079026;28;20220;-71
2022/01/17 01:49:16;;;;;;;13.38;2.33;;;6.90;99.90;;;;;;5079401;28;20231;-72
2022/01/17 01:51:44;;;;;;;12.65;1.77;;;6.90;99.90;;;;;;5079006;28;20206;-70
2022/01/17 01:54:13;;;;;;;12.65;2.75;;;6.90;99.90;;;;;;5079020;28;20196;-71
2022/01/17 01:56:44;;;;;;;16.98;2.08;;;6.90;99.90;;;;;;5079515;28;20239;-71
2022/01/17 01:59:12;;;;;;;17.88;3.45;;;7.00;99.90;;;;;;5079772;28;20200;-71
2022/01/17 02:01:41;;;;;;;6.78;2.60;;;7.00;99.90;;;;;;5079318;28;20205;-73
2022/01/17 02:04:10;;;;;;;12.10;4.00;;;7.00;99.90;;;;;;5078856;28;20196;-70
2022/01/17 02:06:38;;;;;;;18.15;3.40;;;7.00;99.90;;;;;;5078630;28;20222;-71
2022/01/17 02:09:06;;;;;;;18.98;4.38;;;7.00;99.90;;;;;;5079010;28;20206;-71
2022/01/17 02:11:35;;;;;;;8.45;3.13;;;7.10;99.90;;;;;;5079477;28;20790;-71
2022/01/17 02:14:05;;;;;;;12.40;3.45;;;7.10;99.90;;;;;;5078743;28;20222;-72
2022/01/17 02:16:33;;;;;;;12.90;3.20;;;7.10;99.90;;;;;;5081164;28;20721;-72
2022/01/17 02:19:01;;;;;;;11.90;3.10;;;7.10;99.90;;;;;;5083706;28;20202;-71
2022/01/17 02:21:44;;;;;;;12.50;2.50;;;7.10;99.90;;;;;;5082768;28;20206;-73
2022/01/17 02:24:14;;;;;;;15.82;3.13;;;7.10;99.90;;;;;;5082506;28;20208;-71
2022/01/17 02:26:42;;;;;;;12.68;2.35;;;7.10;99.90;;;;;;5082795;28;20212;-72
2022/01/17 02:29:10;;;;;;;13.65;3.05;;;7.10;99.90;;;;;;5083095;28;20235;-73
2022/01/17 02:31:38;;;;;;;14.90;3.20;;;7.10;99.90;;;;;;5083016;28;20809;-74
2022/01/17 02:34:06;;;;;;;11.93;3.45;;;7.10;99.90;;;;;;5082656;28;20801;-69
2022/01/17 02:36:35;;;;;;;12.77;2.42;;;7.10;99.90;;;;;;5088167;28;20230;-71
2022/01/17 02:39:04;;;;;;;13.65;3.13;;;7.10;99.90;;;;;;5098800;28;20208;-70
2022/01/17 02:41:35;;;;;;;15.20;2.65;;;7.10;99.90;;;;;;5083315;28;20196;-71
2022/01/17 02:44:03;;;;;;;19.25;3.10;;;7.10;99.90;;;;;;5087355;28;20202;-70
2022/01/17 02:46:31;;;;;;;14.88;4.50;;;7.10;99.90;;;;;;5103936;28;20216;-70
2022/01/17 02:49:02;;;;;;;10.98;3.40;;;7.10;99.90;;;;;;5103557;28;20190;-68
2022/01/17 02:51:30;;;;;;;18.67;2.95;;;7.10;99.90;;;;;;5118350;28;20199;-69
2022/01/17 02:53:59;;;;;;;16.75;2.70;;;7.10;99.90;;;;;;5110444;28;20200;-70
2022/01/17 02:56:27;;;;;;;10.40;2.88;;;7.10;99.90;;;;;;5082867;28;20232;-70
2022/01/17 02:58:55;;;;;;;8.82;3.92;;;7.10;99.90;;;;;;5082365;28;20208;-71
2022/01/17 03:01:26;;;;;;;15.80;3.85;;;7.10;99.90;;;;;;5082682;28;20201;-70
2022/01/17 03:03:55;;;;;;;15.07;3.17;;;7.10;99.90;;;;;;5082112;28;20261;-70
2022/01/17 03:06:24;;;;;;;15.45;4.20;;;7.10;99.90;;;;;;5082599;28;20224;-70
2022/01/17 03:08:52;;;;;;;11.65;2.25;;;7.10;99.90;;;;;;5082528;28;20226;-68
2022/01/17 03:11:26;;;;;;;11.40;3.33;;;7.10;99.90;;;;;;5100870;28;20198;-69
2022/01/17 03:13:55;;;;;;;10.45;2.65;;;7.20;99.90;;;;;;5102428;28;20210;-69
2022/01/17 03:16:29;;;;;;;9.70;2.35;;;7.20;99.90;;;;;;5102349;28;20219;-71
2022/01/17 03:18:57;;;;;;;8.50;2.50;;;7.20;99.90;;;;;;5102611;28;20206;-69
2022/01/17 03:21:27;;;;;;;13.45;3.35;;;7.20;99.90;;;;;;5102485;28;20204;-70
2022/01/17 03:23:55;;;;;;;10.90;2.50;;;7.20;99.90;;;;;;5104935;28;20203;-69
2022/01/17 03:26:25;;;;;;;14.60;3.38;;;7.20;99.90;;;;;;5106150;28;20286;-70
2022/01/17 03:28:52;;;;;;;10.23;2.50;;;7.20;99.90;;;;;;5102831;28;20455;-71
2022/01/17 03:31:20;;;;;;;10.70;3.03;;;7.20;99.90;;;;;;5101937;28;20213;-70
2022/01/17 03:33:48;;;;;;;16.67;3.17;;;7.20;99.90;;;;;;5101687;28;20195;-70
2022/01/17 03:36:16;;;;;;;9.55;2.90;;;7.20;99.90;;;;;;5101491;28;20237;-70
2022/01/17 03:38:44;;;;;;;15.48;3.38;;;7.20;99.90;;;;;;5102255;28;20302;-70
2022/01/17 03:41:13;;;;;;;12.30;3.15;;;7.30;99.90;;;;;;5102111;28;20199;-69
2022/01/17 03:43:43;;;;;;;13.98;3.67;;;7.30;99.90;;;;;;5095901;28;20191;-69
2022/01/17 03:46:11;;;;;;;10.48;2.55;;;7.30;99.90;;;;;;5102733;28;20224;-69
2022/01/17 03:48:39;;;;;;;21.10;3.72;;;7.30;99.90;;;;;;5103650;27;20196;-70
2022/01/17 03:51:07;;;;;;;10.23;2.35;;;7.30;99.90;;;;;;5103957;28;20206;-70
2022/01/17 03:53:35;;;;;;;12.35;3.83;;;7.30;99.90;;;;;;5103908;27;20198;-70
2022/01/17 03:56:03;;;;;;;20.95;3.20;;;7.30;99.90;;;;;;5104420;28;20230;-70
2022/01/17 03:58:31;;;;;;;14.30;3.70;;;7.30;99.90;;;;;;5105081;28;20219;-69
2022/01/17 04:01:02;;;;;;;12.85;3.22;;;7.30;99.90;;;;;;5102835;28;20204;-69
2022/01/17 04:03:31;;;;;;;21.70;4.00;;;7.30;99.90;;;;;;5100964;28;20215;-69
2022/01/17 04:05:59;;;;;;;9.52;2.83;;;7.30;99.90;;;;;;5101597;28;20206;-69
2022/01/17 04:08:27;;;;;;;16.10;3.67;;;7.20;99.90;;;;;;5102236;28;20727;-70
2022/01/17 04:10:54;;;;;;;18.38;4.65;;;7.20;99.90;;;;;;5100535;28;20210;-70
2022/01/17 04:13:23;;;;;;;14.68;3.80;;;7.30;99.90;;;;;;5100825;28;20203;-70
2022/01/17 04:15:51;;;;;;;13.23;5.40;;;7.30;99.90;;;;;;5100472;28;20215;-69
2022/01/17 04:18:23;;;;;;;18.92;3.28;;;7.20;99.90;;;;;;5100884;28;20816;-69
2022/01/17 04:20:52;;;;;;;11.63;2.92;;;7.30;99.90;;;;;;5101099;28;20832;-71
2022/01/17 04:23:21;;;;;;;16.05;3.28;;;7.30;99.90;;;;;;5100470;28;20988;-70
2022/01/17 04:25:49;;;;;;;15.65;2.55;;;7.30;99.90;;;;;;5100444;28;20202;-70
2022/01/17 04:28:17;;;;;;;15.98;2.95;;;7.30;99.90;;;;;;5100897;28;20223;-70
2022/01/17 04:30:45;;;;;;;19.20;3.42;;;7.30;99.90;;;;;;5100422;28;20195;-70
2022/01/17 04:33:13;;;;;;;10.30;2.55;;;7.30;99.90;;;;;;5100258;28;20199;-70
2022/01/17 04:35:44;;;;;;;9.80;2.72;;;7.30;99.90;;;;;;5100389;27;20210;-70
2022/01/17 04:38:17;;;;;;;23.15;4.57;;;7.30;99.90;;;;;;5100107;28;20219;-70
2022/01/17 04:40:46;;;;;;;8.77;2.92;;;7.30;99.90;;;;;;5100027;28;20200;-70
2022/01/17 04:43:20;;;;;;;10.02;3.50;;;7.40;99.90;;;;;;5102167;28;20204;-73
2022/01/17 04:45:49;;;;;;;13.65;3.25;;;7.40;99.90;;;;;;5099988;28;20227;-74
2022/01/17 04:48:18;;;;;;;15.30;3.47;;;7.40;99.90;;;;;;5100665;28;20224;-73
2022/01/17 04:50:47;;;;;;;15.23;3.30;;;7.40;99.90;;;;;;5100920;28;20208;-73
2022/01/17 04:53:18;;;;;;;9.77;2.95;;;7.40;99.90;;;;;;5100654;28;20204;-73
2022/01/17 04:55:45;;;;;;;15.10;3.33;;;7.40;99.90;;;;;;5099959;28;20230;-72
2022/01/17 04:58:13;;;;;;;8.30;3.08;;;7.40;99.90;;;;;;5099997;28;20219;-74
2022/01/17 05:00:46;;;;;;;7.22;2.00;;;7.40;99.90;;;;;;5100610;28;20277;-74
2022/01/17 05:03:15;;;;;;;10.40;3.20;;;7.40;99.90;;;;;;5100457;28;20183;-72
2022/01/17 05:05:43;;;;;;;30.98;4.40;;;7.50;99.90;;;;;;5099994;28;20238;-71
2022/01/17 05:08:13;;;;;;;12.00;3.15;;;7.50;99.90;;;;;;5099709;28;20756;-70
2022/01/17 05:10:42;;;;;;;18.75;4.30;;;7.50;99.90;;;;;;5101057;28;20207;-70
2022/01/17 05:13:15;;;;;;;12.90;3.28;;;7.50;99.90;;;;;;5099961;28;20204;-69
2022/01/17 05:15:48;;;;;;;13.88;5.15;;;7.50;99.90;;;;;;5100416;28;20206;-71
2022/01/17 05:19:47;;;;;;;10.50;4.40;;;7.50;99.90;;;;;;5100401;28;20223;-69
2022/01/17 05:21:13;;;;;;;17.02;3.53;;;7.50;99.90;;;;;;5102606;28;20206;-71
2022/01/17 05:23:43;;;;;;;17.80;4.30;;;7.50;99.90;;;;;;5125492;28;20234;-69
2022/01/17 05:26:11;;;;;;;19.88;4.40;;;7.50;99.90;;;;;;5112498;28;20299;-70
2022/01/17 05:28:39;;;;;;;18.45;3.47;;;7.50;99.90;;;;;;5100722;28;20199;-70
2022/01/17 05:31:06;;;;;;;29.55;3.35;;;7.60;99.90;;;;;;5100430;28;20196;-70
2022/01/17 05:33:35;;;;;;;19.88;3.88;;;7.60;99.90;;;;;;5099806;28;20346;-69
2022/01/17 05:36:03;;;;;;;18.20;4.78;;;7.60;99.90;;;;;;5099937;28;20200;-72
2022/01/17 05:38:31;;;;;;;12.10;3.35;;;7.60;99.90;;;;;;5101534;28;20226;-72
2022/01/17 05:41:00;;;;;;;11.13;3.90;;;7.60;99.90;;;;;;5101047;28;20294;-72
2022/01/17 05:43:27;;;;;;;11.48;3.50;;;7.60;99.90;;;;;;5100863;28;20196;-72
2022/01/17 05:45:55;;;;;;;18.55;3.42;;;7.60;99.90;;;;;;5101873;28;20260;-73
2022/01/17 05:48:23;;;;;;;18.60;4.93;;;7.50;99.90;;;;;;5103227;28;20384;-73
2022/01/17 05:50:51;;;;;;;17.67;4.10;;;7.40;99.90;;;;;;5105961;28;20219;-72
2022/01/17 05:53:19;;;;;;;13.90;3.72;;;7.40;99.90;;;;;;5105340;28;20825;-71
2022/01/17 05:55:47;;;;;;;17.90;4.40;;;7.30;99.90;;;;;;5100878;28;20803;-72
2022/01/17 05:58:16;;;;;;;16.20;3.65;;;7.40;99.90;;;;;;5099481;28;20222;-71
2022/01/17 06:00:44;;;;;;;15.23;4.55;;;7.40;99.90;;;;;;5104264;28;20199;-72
2022/01/17 06:03:12;;;;;;;15.38;4.25;;;7.50;99.90;;;;;;5104088;27;20203;-71
2022/01/17 06:05:40;;;;;;;21.30;4.40;;;7.50;99.90;;;;;;5103554;28;20287;-71
2022/01/17 06:08:08;;;;;;;16.25;4.10;;;7.60;99.90;;;;;;5104368;28;20220;-70
2022/01/17 06:10:38;;;;;;;14.40;3.90;;;7.50;99.90;;;;;;5104402;28;20192;-70
2022/01/17 06:13:05;;;;;;;15.18;4.05;;;7.50;99.90;;;;;;5103620;28;20195;-72
2022/01/17 06:15:35;;;;;;;19.23;4.13;;;7.60;99.90;;;;;;5103785;28;20203;-70
2022/01/17 06:18:02;;;;;;;19.00;4.82;;;7.60;99.90;;;;;;5102980;28;20283;-70
2022/01/17 06:20:30;;;;;;;21.05;4.47;;;7.60;99.90;;;;;;5103673;28;20202;-71
2022/01/17 06:22:59;;;;;;;16.10;4.07;;;7.70;99.90;;;;;;5102898;28;20207;-72
2022/01/17 06:25:26;;;;;;;18.92;5.22;;;7.70;99.90;;;;;;5103242;28;20214;-72
2022/01/17 06:27:54;;;;;;;14.38;4.20;;;7.70;99.90;;;;;;5103528;28;20219;-74
2022/01/17 06:30:22;;;;;;;11.50;3.30;;;7.80;99.90;;;;;;5103033;27;20210;-71
2022/01/17 06:32:51;;;;;;;13.50;3.30;;;7.80;99.90;;;;;;5102563;28;20207;-71
2022/01/17 06:35:20;;;;;;;16.52;3.60;;;7.90;99.90;;;;;;5084952;28;20373;-71
2022/01/17 06:37:48;;;;;;;16.00;4.40;;;7.80;99.90;;;;;;5082233;28;20798;-71
2022/01/17 06:40:16;;;;;;;12.20;2.70;;;7.80;99.90;;;;;;5083354;28;20873;-71
2022/01/17 06:42:44;;;;;;;18.08;3.85;;;7.60;99.90;;;;;;5082429;28;20814;-70
2022/01/17 06:45:14;;;;;;;18.13;3.47;;;7.50;99.90;;;;;;5081616;28;20196;-70
2022/01/17 06:47:42;;;;;;;27.33;5.20;;;7.50;99.90;;;;;;5101444;28;20219;-72
2022/01/17 06:50:12;;;;;;;24.10;4.45;;;7.50;99.90;;;;;;5102480;28;20195;-69
2022/01/17 06:52:40;;;;;;;19.85;4.03;;;7.40;99.90;;;;;;5102828;28;20206;-71
2022/01/17 06:55:09;;;;;;;20.35;4.60;;;7.30;99.90;;;;;;5102660;28;20285;-69
2022/01/17 06:57:37;;;;;;;14.45;4.65;;;7.30;99.90;;;;;;5101867;27;20231;-69
2022/01/17 07:00:06;;;;;;;24.38;5.05;;;7.20;99.90;;;;;;5102333;28;20220;-70
2022/01/17 07:02:34;;;;;;;19.65;4.90;;;7.20;99.90;;;;;;5101876;28;20195;-70
2022/01/17 07:05:03;;;;;;;25.38;5.65;;;7.20;99.90;;;;;;5102231;28;20226;-70
2022/01/17 07:07:32;;;;;;;27.52;5.45;;;7.20;99.90;;;;;;5103139;28;20231;-70
2022/01/17 07:10:04;;;;;;;14.98;3.55;;;7.20;99.90;;;;;;5103643;28;20203;-69
2022/01/17 07:12:35;;;;;;;27.33;5.40;;;7.20;99.90;;;;;;5103209;28;20210;-71
2022/01/17 07:15:04;;;;;;;23.33;5.15;;;7.10;99.90;;;;;;5102200;28;20457;-71
2022/01/17 07:17:32;;;;;;;26.27;4.63;;;7.10;99.90;;;;;;5102638;28;20223;-72
2022/01/17 07:20:00;;;;;;;25.02;5.55;;;7.20;99.90;;;;;;5101872;28;20776;-72
2022/01/17 07:22:29;;;;;;;26.95;5.95;;;7.20;99.90;;;;;;5104551;28;20210;-72
2022/01/17 07:25:00;;;;;;;22.60;4.68;;;7.20;99.90;;;;;;5101573;28;20213;-71
2022/01/17 07:27:33;;;;;;;27.27;4.82;;;7.20;99.90;;;;;;5103138;28;20485;-69
2022/01/17 07:30:01;;;;;;;24.25;5.72;;;7.10;99.90;;;;;;5103035;28;20566;-70
2022/01/17 07:32:29;;;;;;;28.52;6.47;;;7.20;99.90;;;;;;5102293;28;20244;-70
2022/01/17 07:34:57;;;;;;;23.25;5.80;;;7.20;99.90;;;;;;5101240;28;20295;-70
2022/01/17 07:37:24;;;;;;;18.42;4.15;;;7.20;99.90;;;;;;5101622;28;20212;-71
2022/01/17 07:39:52;;;;;;;22.33;5.75;;;7.20;99.90;;;;;;5102219;28;20219;-70
2022/01/17 07:42:21;;;;;;;25.73;5.70;;;7.20;99.90;;;;;;5102082;28;20240;-69
2022/01/17 07:44:54;;;;;;;25.33;4.90;;;7.20;99.90;;;;;;5101935;28;20196;-69
2022/01/17 07:47:37;;;;;;;24.90;5.07;;;7.20;99.90;;;;;;5102475;28;20230;-71
2022/01/17 07:50:07;;;;;;;21.27;4.28;;;7.30;99.90;;;;;;5103553;28;20184;-70
2022/01/17 07:52:37;;;;;;;26.17;5.53;;;7.20;99.90;;;;;;5103174;28;20806;-71
2022/01/17 07:55:06;;;;;;;40.00;5.68;;;7.30;99.90;;;;;;5124288;28;20223;-69
2022/01/17 07:57:36;;;;;;;23.65;4.40;;;7.30;99.90;;;;;;5118127;28;20319;-70
2022/01/17 08:00:07;;;;;;;20.98;4.75;;;7.30;99.90;;;;;;5101863;28;20254;-71
2022/01/17 08:02:35;;;;;;;26.30;5.20;;;7.30;99.90;;;;;;5102087;28;20261;-71
2022/01/17 08:05:04;;;;;;;27.58;5.53;;;7.30;99.90;;;;;;5102703;28;20200;-74
2022/01/17 08:07:32;;;;;;;26.23;4.90;;;7.30;99.90;;;;;;5104226;28;20237;-73
2022/01/17 08:10:00;;;;;;;23.42;5.03;;;7.30;99.90;;;;;;5102997;28;20196;-72
2022/01/17 08:12:28;;;;;;;24.10;4.15;;;7.30;99.90;;;;;;5102142;28;20233;-72
2022/01/17 08:15:01;;;;;;;26.45;4.82;;;7.20;99.90;;;;;;5101674;28;20195;-72
2022/01/17 08:17:29;;;;;;;24.95;6.47;;;7.30;99.90;;;;;;5101420;28;20289;-72
2022/01/17 08:19:57;;;;;;;22.95;4.57;;;7.30;99.90;;;;;;5101807;28;20220;-73
2022/01/17 08:22:25;;;;;;;17.95;5.80;;;7.30;99.90;;;;;;5100495;28;20207;-73
2022/01/17 08:24:52;;;;;;;23.30;5.55;;;7.30;99.90;;;;;;5100810;28;20199;-72
2022/01/17 08:27:20;;;;;;;25.20;5.53;;;7.30;99.90;;;;;;5100646;28;20217;-72
2022/01/17 08:29:49;;;;;;;29.23;6.30;;;7.30;99.90;;;;;;5100814;28;20227;-73
2022/01/17 08:32:38;;;;;;;25.17;5.40;;;7.30;99.90;;;;;;5100658;28;20240;-72
2022/01/17 08:35:07;;;;;;;34.80;6.80;;;7.30;99.90;;;;;;5100634;28;20210;-72
2022/01/17 08:37:35;;;;;;;26.05;6.85;;;7.30;99.90;;;;;;5101078;28;20254;-72
2022/01/17 08:40:05;;;;;;;33.13;5.55;;;7.30;99.90;;;;;;5100847;28;20373;-73
2022/01/17 08:42:36;;;;;;;34.40;6.80;;;7.40;99.90;;;;;;5101982;28;20237;-72
2022/01/17 08:45:07;;;;;;;31.83;5.43;;;7.40;99.90;;;;;;5108979;28;20213;-72
2022/01/17 08:47:35;;;;;;;32.90;6.72;;;7.50;99.90;;;;;;5106000;28;20219;-72
2022/01/17 08:50:06;;;;;;;25.23;6.65;;;7.50;99.90;;;;;;5108350;28;20426;-73
2022/01/17 08:52:34;;;;;;;25.02;5.60;;;7.60;99.90;;;;;;5113810;28;20214;-72
2022/01/17 08:55:03;;;;;;;29.80;6.07;;;7.60;99.90;;;;;;5117055;28;20261;-71
2022/01/17 08:57:31;;;;;;;20.67;5.25;;;7.70;99.90;;;;;;5108102;28;20849;-71
2022/01/17 08:59:59;;;;;;;23.73;6.63;;;7.70;99.90;;;;;;5107654;28;20221;-73
2022/01/17 09:02:28;;;;;;;17.90;3.90;;;7.80;99.90;;;;;;5102932;28;20196;-72
2022/01/17 09:04:56;;;;;;;18.45;5.65;;;7.90;99.90;;;;;;5100698;27;20211;-72
2022/01/17 09:07:25;;;;;;;14.30;3.33;;;7.90;99.90;;;;;;5101656;28;20215;-72
2022/01/17 09:09:53;;;;;;;22.10;4.72;;;8.00;99.90;;;;;;5101056;28;20192;-72
2022/01/17 09:12:21;;;;;;;22.58;4.32;;;8.00;99.90;;;;;;5104296;28;20207;-71
2022/01/17 09:14:49;;;;;;;19.73;5.53;;;8.00;99.90;;;;;;5100727;28;20215;-73
2022/01/17 09:17:17;;;;;;;21.73;4.90;;;8.00;99.90;;;;;;5100836;28;20216;-72
2022/01/17 09:19:46;;;;;;;24.00;5.35;;;8.00;99.90;;;;;;5101178;28;20874;-72
2022/01/17 09:22:14;;;;;;;17.35;5.40;;;8.00;99.90;;;;;;5100942;28;20237;-72
2022/01/17 09:24:43;;;;;;;17.40;4.00;;;8.10;99.90;;;;;;5100496;28;20227;-72
2022/01/17 09:27:15;;;;;;;16.33;3.83;;;8.10;99.90;;;;;;5101161;28;20230;-74
2022/01/17 09:29:44;;;;;;;16.98;4.22;;;8.10;99.90;;;;;;5100074;28;20734;-73
2022/01/17 09:32:12;;;;;;;9.88;2.97;;;8.10;99.90;;;;;;5100016;28;20203;-72
2022/01/17 09:34:40;;;;;;;15.27;3.92;;;8.10;99.90;;;;;;5099743;28;20205;-71
2022/01/17 09:37:09;;;;;;;13.20;2.95;;;8.10;99.90;;;;;;5099626;28;20219;-71
2022/01/17 09:39:38;;;;;;;10.77;3.15;;;8.10;99.90;;;;;;5100744;28;20200;-71
2022/01/17 09:42:08;;;;;;;11.40;2.63;;;8.10;99.90;;;;;;5100426;28;20200;-70
2022/01/17 09:44:37;;;;;;;8.75;2.33;;;8.10;99.90;;;;;;5101098;28;20201;-70
2022/01/17 09:47:07;;;;;;;7.55;3.55;;;8.10;99.90;;;;;;5100616;28;20216;-71
2022/01/17 09:49:41;;;;;;;5.18;1.95;;;8.10;99.90;;;;;;5100647;28;20348;-71
2022/01/17 09:52:33;;;;;;;12.30;2.33;;;8.10;99.90;;;;;;5100848;28;20199;-73
2022/01/17 09:55:06;;;;;;;9.13;2.88;;;8.10;99.90;;;;;;5099333;28;20208;-71
2022/01/17 09:57:39;;;;;;;7.22;1.70;;;8.00;99.90;;;;;;5100043;28;20231;-72
2022/01/17 10:00:10;;;;;;;10.27;2.00;;;7.90;99.90;;;;;;5100067;28;20229;-70
2022/01/17 10:02:38;;;;;;;5.30;2.05;;;7.90;99.90;;;;;;5100089;28;20200;-68
2022/01/17 10:05:14;;;;;;;6.65;2.25;;;7.90;99.90;;;;;;5099037;28;20820;-70
2022/01/17 10:07:52;;;;;;;5.53;1.45;;;7.90;99.90;;;;;;5100207;28;20306;-71
2022/01/17 10:10:45;;;;;;;8.57;3.10;;;7.80;99.90;;;;;;5103397;28;20204;-71
2022/01/17 10:13:18;;;;;;;13.05;2.97;;;7.70;99.90;;;;;;5105162;28;20794;-71
2022/01/17 10:16:04;;;;;;;3.97;2.00;;;7.60;99.90;;;;;;5107944;28;20200;-73
2022/01/17 10:18:36;;;;;;;8.77;1.88;;;7.70;99.90;;;;;;5109545;28;20293;-73
2022/01/17 10:21:10;;;;;;;5.55;1.58;;;7.80;99.90;;;;;;5102774;28;20878;-72
2022/01/17 10:24:00;;;;;;;7.22;2.65;;;7.90;99.90;;;;;;5101133;28;20206;-72
2022/01/17 10:35:12;;;;;;;10.50;2.40;;;8.10;99.90;;;;;;5100370;28;20202;-70
2022/01/17 10:37:41;;;;;;;11.75;2.10;;;8.10;99.90;;;;;;5102325;28;20302;-70
2022/01/17 10:40:15;;;;;;;6.68;2.05;;;8.10;99.90;;;;;;5104895;28;20298;-70
2022/01/17 10:42:48;;;;;;;6.38;2.00;;;8.10;99.90;;;;;;5103575;28;20238;-68
2022/01/17 10:45:19;;;;;;;10.35;2.05;;;8.10;99.90;;;;;;5103883;28;20328;-69
2022/01/17 10:47:48;;;;;;;8.85;3.13;;;8.10;99.90;;;;;;5103196;28;20226;-68
2022/01/17 10:50:19;;;;;;;9.90;1.98;;;8.00;99.90;;;;;;5103357;28;20782;-69
2022/01/17 10:52:49;;;;;;;10.23;1.98;;;8.00;99.90;;;;;;5103277;28;20203;-68
2022/01/17 10:55:19;;;;;;;9.73;2.80;;;7.90;99.90;;;;;;5103077;28;20282;-69
2022/01/17 10:57:49;;;;;;;11.23;3.20;;;7.80;99.90;;;;;;5102518;28;20224;-68
2022/01/17 11:00:21;;;;;;;12.93;2.42;;;7.70;99.90;;;;;;5102807;28;20195;-70
2022/01/17 11:02:52;;;;;;;8.48;2.53;;;7.70;99.90;;;;;;5104903;28;20245;-68
2022/01/17 11:05:22;;;;;;;15.80;2.53;;;7.60;99.90;;;;;;5102748;28;20678;-66
2022/01/17 11:07:55;;;;;;;8.07;2.67;;;7.30;99.90;;;;;;5102823;28;20270;-66
2022/01/17 11:10:25;;;;;;;13.70;2.80;;;7.10;99.90;;;;;;5102289;28;20840;-67
2022/01/17 11:12:56;;;;;;;13.90;2.92;;;6.90;99.90;;;;;;5102750;28;20199;-69
2022/01/17 11:15:28;;;;;;;12.98;3.50;;;6.50;99.90;;;;;;5102354;28;20282;-67
2022/01/17 11:17:57;;;;;;;10.07;2.25;;;6.30;99.90;;;;;;5102425;27;20470;-68
2022/01/17 11:20:27;;;;;;;12.40;2.65;;;6.30;99.90;;;;;;5102076;28;20184;-69
2022/01/17 11:22:57;;;;;;;14.77;3.40;;;6.20;99.90;;;;;;5102206;28;20934;-67
2022/01/17 11:25:28;;;;;;;17.60;3.55;;;6.20;99.90;;;;;;5102336;27;20207;-69
2022/01/17 11:27:57;;;;;;;29.58;5.55;;;6.10;99.90;;;;;;5102301;27;20728;-67
2022/01/17 11:30:26;;;;;;;15.52;3.40;;;6.00;99.90;;;;;;5102447;28;20210;-67
2022/01/17 11:32:56;;;;;;;14.63;3.85;;;6.00;99.90;;;;;;5102286;28;20268;-67
2022/01/17 11:35:25;;;;;;;9.45;2.40;;;6.10;99.90;;;;;;5102330;28;20342;-67
2022/01/17 11:37:56;;;;;;;19.02;4.18;;;6.30;99.90;;;;;;5102275;28;20218;-67
2022/01/17 11:40:29;;;;;;;16.08;3.97;;;6.30;99.90;;;;;;5102918;28;20275;-69
2022/01/17 11:42:59;;;;;;;9.68;3.05;;;6.50;99.90;;;;;;5102540;28;20234;-69
2022/01/17 11:45:36;;;;;;;22.38;4.70;;;6.60;99.90;;;;;;5102220;28;20291;-68
2022/01/17 11:48:16;;;;;;;18.85;6.00;;;6.70;99.90;;;;;;5101026;28;20234;-69
2022/01/17 11:50:47;;;;;;;17.20;3.80;;;6.70;99.90;;;;;;5100528;27;20204;-70
2022/01/17 11:53:44;;;;;;;7.60;2.72;;;6.80;99.90;;;;;;5101177;28;20192;-68
2022/01/17 11:56:34;;;;;;;16.10;3.40;;;6.90;99.90;;;;;;5101086;28;20265;-69
2022/01/17 11:59:02;;;;;;;12.20;3.78;;;7.00;99.90;;;;;;5101727;28;20444;-68
2022/01/17 12:01:31;;;;;;;18.80;6.15;;;7.00;99.90;;;;;;5102427;28;20471;-69
2022/01/17 12:04:05;;;;;;;13.18;3.30;;;7.00;99.90;;;;;;5101528;28;20215;-69
2022/01/17 12:06:35;;;;;;;13.27;3.45;;;7.10;99.90;;;;;;5102318;28;20829;-68
2022/01/17 12:09:21;;;;;;;20.80;4.50;;;7.00;99.90;;;;;;5101786;27;20385;-69
2022/01/17 12:11:53;;;;;;;16.77;3.35;;;7.00;99.90;;;;;;5101768;28;20428;-68
2022/01/17 12:14:32;;;;;;;21.30;4.55;;;7.10;99.90;;;;;;5101313;28;20204;-69
2022/01/17 12:17:32;;;;;;;18.73;4.55;;;7.10;99.90;;;;;;5101418;28;20254;-68
2022/01/17 12:20:24;;;;;;;21.23;6.30;;;7.10;99.90;;;;;;5101632;28;20203;-68
2022/01/17 12:22:58;;;;;;;13.57;5.35;;;7.10;99.90;;;;;;5087384;27;20712;-68
2022/01/17 12:25:44;;;;;;;20.55;4.75;;;7.10;99.90;;;;;;5101202;28;20200;-68
2022/01/17 12:28:25;;;;;;;21.75;5.65;;;7.10;99.90;;;;;;5101205;28;20405;-67
2022/01/17 12:30:56;;;;;;;15.95;4.88;;;7.20;99.90;;;;;;5100788;28;20203;-69
2022/01/17 12:33:37;;;;;;;15.30;4.07;;;7.20;99.90;;;;;;5101221;28;20200;-69
2022/01/17 12:36:27;;;;;;;17.23;4.85;;;7.10;99.90;;;;;;5100855;28;20209;-67
2022/01/17 12:39:11;;;;;;;20.83;4.95;;;7.10;99.90;;;;;;5101665;28;20199;-69
2022/01/17 12:41:42;;;;;;;15.95;4.57;;;7.10;99.90;;;;;;5101470;28;20581;-69
2022/01/17 12:44:14;;;;;;;27.13;5.72;;;7.10;99.90;;;;;;5100524;28;20195;-68
2022/01/17 12:46:43;;;;;;;16.27;3.95;;;7.00;99.90;;;;;;5100146;28;20303;-68
2022/01/17 12:49:13;;;;;;;18.45;6.53;;;7.10;99.90;;;;;;5101146;28;20456;-68
2022/01/17 12:51:41;;;;;;;17.73;4.60;;;7.00;99.90;;;;;;5100573;28;20268;-68
2022/01/17 12:54:11;;;;;;;14.60;3.90;;;7.10;99.90;;;;;;5100447;28;20207;-68
2022/01/17 12:56:42;;;;;;;14.73;5.05;;;7.10;99.90;;;;;;5101544;27;20228;-68
2022/01/17 12:59:10;;;;;;;16.48;4.35;;;7.10;99.90;;;;;;5119482;28;20199;-67
2022/01/17 13:01:43;;;;;;;12.88;4.25;;;7.00;99.90;;;;;;5124443;28;20363;-68
2022/01/17 13:04:14;;;;;;;16.50;4.78;;;7.10;99.90;;;;;;5101245;28;20204;-69
2022/01/17 13:06:42;;;;;;;20.50;5.47;;;7.10;99.90;;;;;;5100837;28;20223;-69
2022/01/17 13:09:12;;;;;;;22.63;4.88;;;7.10;99.90;;;;;;5100238;28;20336;-69
2022/01/17 13:11:41;;;;;;;15.57;4.05;;;7.10;99.90;;;;;;5101035;28;20200;-69
2022/01/17 13:14:10;;;;;;;22.55;4.95;;;7.20;99.90;;;;;;5100533;28;20233;-68
2022/01/17 13:16:40;;;;;;;14.93;3.85;;;7.20;99.90;;;;;;5101118;28;20237;-68
2022/01/17 13:19:11;;;;;;;15.10;4.15;;;7.10;99.90;;;;;;5101735;28;20204;-69